Time;durP1;ratioP1;P1;durP2;ratioP2;P2;SDS_P1;SDS_P2;PMS_P1;PMS_P2;Temp;Humidity;BMP_temperature;BMP_pressure;BME280_temperature;BME280_humidity;BME280_pressure;Samples;Min_cycle;Max_cycle;Signal;HPM_P1;HPM_P2
2021/07/21 00:00:36;;;;;;;13.00;8.88;;;14.50;95.20;;;;;;4962041;28;20050;-86
2021/07/21 00:03:03;;;;;;;16.40;9.27;;;14.40;95.30;;;;;;4958070;28;20030;-87
2021/07/21 00:05:29;;;;;;;12.90;8.68;;;14.40;95.50;;;;;;4957467;28;20504;-87
2021/07/21 00:07:56;;;;;;;14.93;9.32;;;14.40;95.50;;;;;;4941585;28;20378;-86
2021/07/21 00:10:24;;;;;;;13.20;9.93;;;14.30;95.30;;;;;;4937877;28;20070;-86
2021/07/21 00:15:40;;;;;;;12.23;8.88;;;14.20;95.60;;;;;;4962351;28;20041;-88
2021/07/21 00:20:44;;;;;;;12.65;9.20;;;14.10;95.80;;;;;;4968617;28;20058;-86
2021/07/21 00:23:10;;;;;;;11.82;8.73;;;14.10;95.90;;;;;;4980431;28;20088;-88
2021/07/21 00:25:36;;;;;;;12.73;8.48;;;14.00;96.00;;;;;;4965769;28;20039;-85
2021/07/21 00:28:02;;;;;;;12.05;8.38;;;14.10;96.10;;;;;;4956226;28;20054;-86
2021/07/21 00:30:28;;;;;;;13.10;9.73;;;14.00;96.10;;;;;;4965259;28;20549;-85
2021/07/21 00:32:55;;;;;;;13.80;10.40;;;14.00;96.20;;;;;;4933791;28;20030;-85
2021/07/21 00:35:21;;;;;;;15.90;10.98;;;14.00;96.60;;;;;;4955292;28;20099;-89
2021/07/21 00:37:47;;;;;;;16.70;10.50;;;14.00;96.40;;;;;;4964900;28;20031;-88
2021/07/21 00:40:15;;;;;;;15.93;9.93;;;14.00;96.60;;;;;;4950939;28;20150;-89
2021/07/21 00:42:42;;;;;;;15.60;10.00;;;14.00;96.70;;;;;;4961668;28;20105;-88
2021/07/21 00:45:08;;;;;;;15.20;10.00;;;14.00;96.80;;;;;;4944708;28;20035;-87
2021/07/21 00:47:35;;;;;;;13.90;9.32;;;14.00;96.80;;;;;;4949968;28;20031;-86
2021/07/21 00:50:01;;;;;;;12.95;9.02;;;13.90;96.80;;;;;;4956634;28;20101;-86
2021/07/21 00:52:27;;;;;;;13.88;8.60;;;14.00;96.70;;;;;;4954557;28;20038;-85
2021/07/21 00:54:54;;;;;;;11.85;8.75;;;14.00;96.60;;;;;;4960493;28;20580;-85
2021/07/21 00:57:20;;;;;;;11.15;8.23;;;13.90;96.60;;;;;;4944605;28;20047;-85
2021/07/21 00:59:50;;;;;;;16.27;7.97;;;13.90;96.60;;;;;;4960087;28;20479;-85
2021/07/21 01:02:16;;;;;;;13.90;8.82;;;13.80;96.70;;;;;;4944619;28;20043;-86
2021/07/21 01:04:43;;;;;;;14.48;9.13;;;13.80;96.80;;;;;;4962740;28;20289;-85
2021/07/21 01:07:09;;;;;;;11.85;8.77;;;13.80;96.80;;;;;;4943833;28;20062;-86
2021/07/21 01:09:36;;;;;;;13.82;9.38;;;13.80;96.80;;;;;;4957370;28;20051;-86
2021/07/21 01:12:33;;;;;;;16.23;9.68;;;13.80;96.80;;;;;;4968217;28;20074;-86
2021/07/21 01:15:19;;;;;;;15.77;10.00;;;13.80;96.90;;;;;;4955625;28;20047;-88
2021/07/21 01:17:57;;;;;;;12.75;9.38;;;13.70;96.90;;;;;;4979015;28;20310;-86
2021/07/21 01:20:48;;;;;;;13.93;8.93;;;13.70;97.00;;;;;;4975166;28;20159;-86
2021/07/21 01:23:27;;;;;;;13.38;9.43;;;13.70;96.90;;;;;;4974202;28;20482;-87
2021/07/21 01:26:10;;;;;;;12.38;8.27;;;13.60;96.70;;;;;;4976498;28;20110;-85
2021/07/21 01:28:40;;;;;;;13.60;8.60;;;13.60;96.70;;;;;;4969159;28;20054;-86
2021/07/21 01:31:09;;;;;;;11.40;8.63;;;13.60;96.80;;;;;;4982838;28;20445;-87
2021/07/21 01:33:38;;;;;;;15.20;8.35;;;13.60;96.90;;;;;;4978471;28;20042;-85
2021/07/21 01:36:09;;;;;;;12.45;8.10;;;13.50;96.90;;;;;;4982263;28;20105;-86
2021/07/21 01:38:42;;;;;;;11.23;8.45;;;13.50;97.00;;;;;;4986041;28;20034;-89
2021/07/21 01:41:15;;;;;;;12.73;8.25;;;13.50;97.00;;;;;;4985545;28;20038;-85
2021/07/21 01:43:43;;;;;;;11.45;8.10;;;13.50;97.10;;;;;;4941108;28;20054;-86
2021/07/21 01:46:11;;;;;;;13.18;8.45;;;13.50;97.10;;;;;;4957225;28;20794;-87
2021/07/21 01:48:41;;;;;;;15.40;9.52;;;13.40;97.10;;;;;;4961493;28;20039;-85
2021/07/21 01:51:09;;;;;;;11.13;7.97;;;13.40;97.10;;;;;;4977934;28;20053;-85
2021/07/21 01:53:37;;;;;;;11.60;8.10;;;13.30;97.10;;;;;;4947002;28;20507;-85
2021/07/21 01:56:05;;;;;;;12.15;8.02;;;13.30;97.10;;;;;;4982632;28;20039;-87
2021/07/21 01:58:32;;;;;;;10.90;7.35;;;13.30;97.20;;;;;;4991060;28;20042;-90
2021/07/21 02:00:58;;;;;;;11.25;8.02;;;13.20;97.30;;;;;;4951978;28;20393;-87
2021/07/21 02:03:26;;;;;;;15.15;8.55;;;13.30;97.40;;;;;;4963417;28;20045;-89
2021/07/21 02:05:58;;;;;;;12.20;8.48;;;13.20;97.30;;;;;;4930119;28;20219;-85
2021/07/21 02:08:25;;;;;;;10.82;7.75;;;13.20;97.40;;;;;;4971690;28;20039;-85
2021/07/21 02:10:51;;;;;;;10.73;7.32;;;13.30;97.40;;;;;;4959228;28;20061;-86
2021/07/21 02:13:18;;;;;;;10.10;7.22;;;13.30;97.40;;;;;;4937950;28;20067;-89
2021/07/21 02:15:49;;;;;;;9.77;7.55;;;13.20;97.30;;;;;;4954374;28;20043;-85
2021/07/21 02:18:17;;;;;;;11.35;7.60;;;13.20;97.30;;;;;;4975355;28;20250;-86
2021/07/21 02:20:45;;;;;;;13.05;8.15;;;13.20;97.40;;;;;;4942977;28;20524;-88
2021/07/21 02:23:13;;;;;;;12.82;8.90;;;13.20;97.50;;;;;;4964439;28;20035;-85
2021/07/21 02:25:40;;;;;;;14.18;9.18;;;13.20;97.60;;;;;;4968913;28;20073;-86
2021/07/21 02:28:05;;;;;;;14.77;10.52;;;13.30;97.70;;;;;;4945518;28;20485;-89
2021/07/21 02:30:32;;;;;;;14.13;9.80;;;13.30;97.80;;;;;;4965802;28;20108;-86
2021/07/21 02:33:08;;;;;;;10.23;8.15;;;13.40;97.80;;;;;;4957607;28;20039;-90
2021/07/21 02:35:35;;;;;;;11.77;7.85;;;13.30;97.70;;;;;;4980996;28;20043;-90
2021/07/21 02:38:01;;;;;;;14.48;9.45;;;13.30;97.50;;;;;;4963392;28;20035;-87
2021/07/21 02:40:27;;;;;;;16.00;9.32;;;13.40;97.40;;;;;;4956348;28;20055;-86
2021/07/21 02:42:54;;;;;;;16.38;10.40;;;13.40;97.40;;;;;;4939199;28;20035;-85
2021/07/21 02:45:20;;;;;;;15.50;10.30;;;13.40;97.50;;;;;;4953812;28;20046;-89
2021/07/21 02:47:46;;;;;;;14.60;9.75;;;13.30;97.50;;;;;;4945008;28;20050;-86
2021/07/21 02:50:13;;;;;;;16.13;10.23;;;13.40;97.60;;;;;;4944296;28;20062;-85
2021/07/21 02:52:48;;;;;;;18.85;10.50;;;13.40;97.70;;;;;;4955881;28;23284;-85
2021/07/21 02:55:19;;;;;;;18.40;10.82;;;13.40;97.80;;;;;;4962351;28;20189;-85
2021/07/21 02:57:52;;;;;;;21.90;11.95;;;13.40;97.90;;;;;;4958640;28;20058;-85
2021/07/21 03:00:20;;;;;;;16.02;10.75;;;13.40;98.20;;;;;;4959674;28;20066;-85
2021/07/21 03:02:52;;;;;;;18.42;9.70;;;13.40;97.90;;;;;;4974185;28;20027;-85
2021/07/21 03:05:20;;;;;;;18.15;10.68;;;13.40;97.90;;;;;;4957703;28;20090;-86
2021/07/21 03:07:54;;;;;;;16.45;10.85;;;13.50;98.00;;;;;;4957027;28;20053;-86
2021/07/21 03:10:21;;;;;;;18.92;11.05;;;13.50;98.10;;;;;;4958356;28;20045;-86
2021/07/21 03:12:58;;;;;;;15.30;9.68;;;13.50;98.20;;;;;;4942466;28;21474;-85
2021/07/21 03:15:28;;;;;;;19.88;11.00;;;13.50;98.10;;;;;;4978588;28;20729;-85
2021/07/21 03:17:56;;;;;;;20.05;10.93;;;13.60;98.10;;;;;;4958611;28;20466;-86
2021/07/21 03:20:23;;;;;;;13.80;9.90;;;13.60;98.10;;;;;;4961644;28;20034;-85
2021/07/21 03:22:53;;;;;;;18.25;10.32;;;13.60;98.00;;;;;;4962086;28;20516;-87
2021/07/21 03:25:22;;;;;;;19.40;11.57;;;13.60;98.00;;;;;;4955492;28;20042;-87
2021/07/21 03:27:51;;;;;;;20.35;11.77;;;13.60;98.10;;;;;;4972040;28;20111;-89
2021/07/21 03:30:17;;;;;;;14.50;10.73;;;13.60;98.10;;;;;;4956128;28;20192;-85
2021/07/21 03:32:45;;;;;;;16.35;10.43;;;13.60;98.10;;;;;;4944488;28;20085;-85
2021/07/21 03:35:13;;;;;;;15.10;9.55;;;13.60;98.20;;;;;;4961584;28;20045;-86
2021/07/21 03:37:45;;;;;;;15.05;9.23;;;13.60;98.30;;;;;;4943320;28;20485;-87
2021/07/21 03:40:11;;;;;;;14.82;9.27;;;13.50;98.30;;;;;;4974751;28;20051;-85
2021/07/21 03:42:38;;;;;;;18.73;10.48;;;13.50;98.30;;;;;;4967387;28;20058;-86
2021/07/21 03:45:07;;;;;;;15.40;10.48;;;13.60;98.50;;;;;;4963126;28;20035;-88
2021/07/21 03:47:34;;;;;;;16.70;10.40;;;13.60;98.50;;;;;;4961321;28;20595;-85
2021/07/21 03:50:00;;;;;;;22.77;11.48;;;13.60;98.50;;;;;;4933338;28;20031;-90
2021/07/21 03:52:27;;;;;;;18.92;10.63;;;13.60;98.50;;;;;;4949295;28;22210;-85
2021/07/21 03:54:55;;;;;;;25.13;12.35;;;13.60;98.50;;;;;;4938383;28;20417;-86
2021/07/21 03:57:23;;;;;;;19.00;11.27;;;13.70;98.50;;;;;;4948509;28;20027;-85
2021/07/21 03:59:49;;;;;;;19.63;11.68;;;13.70;98.50;;;;;;4973588;28;20039;-87
2021/07/21 04:02:16;;;;;;;18.45;10.98;;;13.70;98.50;;;;;;4953360;28;20509;-85
2021/07/21 04:04:48;;;;;;;22.75;11.68;;;13.80;98.60;;;;;;4954884;28;20124;-85
2021/07/21 04:07:16;;;;;;;19.65;11.38;;;13.80;98.50;;;;;;4958712;28;20043;-87
2021/07/21 04:09:43;;;;;;;21.23;12.90;;;13.80;98.50;;;;;;4955144;28;20047;-85
2021/07/21 04:12:10;;;;;;;21.80;11.98;;;13.90;98.60;;;;;;4948098;28;20037;-85
2021/07/21 04:14:37;;;;;;;22.27;11.23;;;13.90;98.70;;;;;;4955289;28;20674;-86
2021/07/21 04:17:05;;;;;;;22.73;13.18;;;13.90;98.70;;;;;;4936322;28;20056;-88
2021/07/21 04:19:32;;;;;;;20.63;12.02;;;13.90;98.70;;;;;;4973410;28;20810;-86
2021/07/21 04:21:58;;;;;;;22.77;13.52;;;13.90;98.80;;;;;;4939111;28;20047;-87
2021/07/21 04:24:25;;;;;;;21.55;12.98;;;13.90;98.80;;;;;;4947770;28;20580;-85
2021/07/21 04:26:52;;;;;;;23.02;15.02;;;14.00;98.90;;;;;;4951848;28;20038;-85
2021/07/21 04:29:24;;;;;;;22.15;13.93;;;14.00;98.90;;;;;;4959254;28;20039;-86
2021/07/21 04:31:50;;;;;;;28.60;14.37;;;14.10;99.00;;;;;;4976860;28;20568;-86
2021/07/21 04:34:18;;;;;;;22.00;13.27;;;14.10;99.00;;;;;;4974238;28;20117;-85
2021/07/21 04:36:45;;;;;;;23.23;13.80;;;14.10;99.00;;;;;;4965215;28;20042;-87
2021/07/21 04:39:18;;;;;;;25.42;14.85;;;14.20;99.10;;;;;;4940062;28;20035;-88
2021/07/21 04:41:51;;;;;;;24.58;15.15;;;14.20;99.10;;;;;;4975527;28;20043;-87
2021/07/21 04:44:19;;;;;;;24.98;14.63;;;14.30;99.10;;;;;;4963152;28;20704;-86
2021/07/21 04:46:47;;;;;;;24.02;13.38;;;14.30;99.10;;;;;;4965224;28;20031;-86
2021/07/21 04:49:16;;;;;;;24.80;14.82;;;14.40;99.10;;;;;;4958626;28;20035;-88
2021/07/21 04:51:45;;;;;;;26.45;15.05;;;14.50;99.00;;;;;;4962991;28;20046;-89
2021/07/21 04:54:12;;;;;;;21.63;14.15;;;14.50;98.90;;;;;;4946192;28;20031;-85
2021/07/21 04:56:38;;;;;;;23.95;14.40;;;14.50;98.80;;;;;;4949694;28;20038;-88
2021/07/21 04:59:04;;;;;;;24.25;14.95;;;14.60;98.70;;;;;;4943142;28;20035;-85
2021/07/21 05:01:31;;;;;;;25.17;14.70;;;14.60;98.80;;;;;;4960740;28;20174;-86
2021/07/21 05:03:58;;;;;;;27.77;15.70;;;14.60;98.80;;;;;;4965188;28;20086;-89
2021/07/21 05:06:24;;;;;;;27.17;15.95;;;14.70;98.80;;;;;;4944733;28;20031;-86
2021/07/21 05:08:51;;;;;;;24.63;15.30;;;14.80;99.00;;;;;;4963607;28;20473;-86
2021/07/21 05:11:18;;;;;;;23.13;14.82;;;14.80;98.90;;;;;;4967491;28;20038;-86
2021/07/21 05:13:45;;;;;;;25.00;15.82;;;14.80;98.80;;;;;;4949802;28;20075;-86
2021/07/21 05:16:12;;;;;;;24.30;16.13;;;14.90;98.80;;;;;;4961437;28;20031;-86
2021/07/21 05:18:38;;;;;;;26.02;15.75;;;14.90;98.80;;;;;;4945372;28;20034;-85
2021/07/21 05:21:05;;;;;;;31.95;16.67;;;14.90;98.90;;;;;;4965959;28;20130;-88
2021/07/21 05:23:31;;;;;;;27.08;15.35;;;15.00;98.90;;;;;;4950106;28;20134;-87
2021/07/21 05:25:58;;;;;;;26.77;15.35;;;15.00;98.80;;;;;;4967675;28;20049;-86
2021/07/21 05:28:25;;;;;;;26.02;16.00;;;15.00;98.70;;;;;;4966538;28;20027;-85
2021/07/21 05:30:51;;;;;;;27.65;15.80;;;15.00;98.70;;;;;;4953272;28;20038;-89
2021/07/21 05:33:17;;;;;;;28.27;15.65;;;15.10;98.60;;;;;;4974724;28;20274;-86
2021/07/21 05:35:44;;;;;;;24.23;16.83;;;15.10;98.60;;;;;;4962170;28;20153;-88
2021/07/21 05:38:10;;;;;;;26.85;16.63;;;15.20;98.60;;;;;;4955849;28;20026;-86
2021/07/21 05:40:36;;;;;;;28.80;16.25;;;15.20;98.70;;;;;;4971870;28;20134;-85
2021/07/21 05:43:03;;;;;;;32.88;18.02;;;15.30;98.70;;;;;;4961967;28;20529;-86
2021/07/21 05:45:29;;;;;;;28.58;16.83;;;15.30;98.60;;;;;;4915616;28;20058;-85
2021/07/21 05:47:54;;;;;;;28.35;16.98;;;15.40;98.50;;;;;;4973151;28;20030;-89
2021/07/21 05:50:20;;;;;;;27.60;16.30;;;15.50;98.50;;;;;;4960754;28;20039;-84
2021/07/21 05:52:46;;;;;;;24.65;15.35;;;15.50;98.50;;;;;;4965208;28;20506;-87
2021/07/21 05:55:12;;;;;;;26.85;15.57;;;15.70;98.50;;;;;;4957953;28;20034;-90
2021/07/21 05:57:38;;;;;;;25.63;15.00;;;15.70;98.30;;;;;;4947328;28;20049;-88
2021/07/21 06:00:06;;;;;;;25.67;15.88;;;15.80;98.20;;;;;;4972883;28;20035;-86
2021/07/21 06:02:32;;;;;;;27.13;16.23;;;15.80;98.10;;;;;;4973743;28;20093;-86
2021/07/21 06:04:58;;;;;;;28.60;16.52;;;15.90;98.10;;;;;;4973505;28;20448;-86
2021/07/21 06:07:24;;;;;;;28.65;16.75;;;16.00;98.00;;;;;;4972851;28;20034;-87
2021/07/21 06:09:50;;;;;;;25.02;15.88;;;16.00;98.00;;;;;;4965675;28;20030;-86
2021/07/21 06:12:16;;;;;;;27.15;16.55;;;16.10;97.90;;;;;;4941023;28;20088;-87
2021/07/21 06:14:42;;;;;;;25.80;15.55;;;16.10;97.90;;;;;;4974461;28;20039;-86
2021/07/21 06:17:08;;;;;;;24.25;15.10;;;16.20;97.90;;;;;;4963760;28;20039;-85
2021/07/21 06:19:34;;;;;;;29.58;15.68;;;16.20;98.10;;;;;;4961536;28;20470;-87
2021/07/21 06:22:02;;;;;;;26.70;16.10;;;16.30;97.80;;;;;;4951367;28;20038;-88
2021/07/21 06:24:28;;;;;;;27.05;15.98;;;16.30;97.70;;;;;;4956929;28;20043;-87
2021/07/21 06:26:54;;;;;;;25.20;16.50;;;16.30;97.70;;;;;;4939938;28;20388;-86
2021/07/21 06:29:20;;;;;;;28.15;17.55;;;16.40;97.70;;;;;;4977766;28;20043;-86
2021/07/21 06:31:46;;;;;;;33.85;18.38;;;16.40;97.70;;;;;;4949253;28;20045;-87
2021/07/21 06:34:12;;;;;;;27.70;17.08;;;16.60;97.80;;;;;;4962460;28;20268;-88
2021/07/21 06:36:38;;;;;;;27.73;17.65;;;16.60;97.70;;;;;;4940347;28;20133;-86
2021/07/21 06:39:04;;;;;;;26.90;17.98;;;16.70;97.60;;;;;;4963192;28;20055;-87
2021/07/21 06:41:30;;;;;;;29.25;16.25;;;16.70;97.40;;;;;;4986758;28;20450;-87
2021/07/21 06:43:59;;;;;;;29.45;17.25;;;16.80;97.30;;;;;;4984245;28;20058;-86
2021/07/21 06:46:25;;;;;;;25.95;17.23;;;16.90;97.20;;;;;;4968575;28;20117;-90
2021/07/21 06:48:52;;;;;;;27.58;16.80;;;17.00;97.20;;;;;;4976610;28;20114;-86
2021/07/21 06:51:21;;;;;;;26.58;17.25;;;17.10;97.20;;;;;;4981926;28;20110;-87
2021/07/21 06:53:47;;;;;;;29.23;17.75;;;17.20;97.20;;;;;;4987474;28;20037;-85
2021/07/21 06:56:15;;;;;;;26.45;16.88;;;17.30;97.10;;;;;;4963355;28;20046;-87
2021/07/21 06:58:40;;;;;;;26.77;17.35;;;17.30;96.80;;;;;;4959223;28;20043;-86
2021/07/21 07:01:07;;;;;;;26.02;16.52;;;17.40;96.80;;;;;;4952462;28;20041;-88
2021/07/21 07:03:33;;;;;;;27.05;16.60;;;17.50;97.10;;;;;;4973166;28;20614;-89
2021/07/21 07:06:00;;;;;;;26.83;16.52;;;17.50;96.80;;;;;;4975791;28;20035;-88
2021/07/21 07:08:26;;;;;;;25.05;16.27;;;17.60;96.70;;;;;;4954345;28;20549;-86
2021/07/21 07:10:53;;;;;;;24.77;16.02;;;17.70;96.60;;;;;;4973895;28;20424;-87
2021/07/21 07:13:19;;;;;;;25.63;15.82;;;17.70;96.40;;;;;;4964269;28;20141;-86
2021/07/21 07:15:46;;;;;;;23.17;15.70;;;17.80;96.20;;;;;;4973803;28;20035;-90
2021/07/21 07:18:15;;;;;;;22.75;15.65;;;17.80;96.00;;;;;;4976403;28;20039;-86
2021/07/21 07:20:42;;;;;;;21.40;15.00;;;18.00;96.00;;;;;;4958543;28;20030;-86
2021/07/21 07:23:08;;;;;;;21.42;16.15;;;18.00;95.80;;;;;;4954230;28;20065;-88
2021/07/21 07:25:34;;;;;;;22.13;15.80;;;18.10;95.60;;;;;;4979829;28;20031;-86
2021/07/21 07:28:00;;;;;;;18.23;12.80;;;18.20;95.50;;;;;;4949661;28;20619;-87
2021/07/21 07:30:26;;;;;;;18.73;12.27;;;18.30;95.20;;;;;;4955017;28;20129;-89
2021/07/21 07:32:52;;;;;;;21.85;14.18;;;18.40;94.80;;;;;;4965407;28;20122;-87
2021/07/21 07:35:18;;;;;;;19.60;11.90;;;18.50;94.50;;;;;;4942567;28;20049;-85
2021/07/21 07:37:43;;;;;;;16.77;11.13;;;18.70;94.20;;;;;;4934800;28;20031;-85
2021/07/21 07:40:10;;;;;;;15.50;11.38;;;18.80;93.90;;;;;;4952873;28;20114;-86
2021/07/21 07:42:36;;;;;;;13.77;9.68;;;18.90;93.40;;;;;;4937143;28;20054;-85
2021/07/21 07:45:04;;;;;;;16.50;10.98;;;19.00;92.80;;;;;;4978885;28;20085;-87
2021/07/21 07:47:32;;;;;;;16.13;10.35;;;19.10;92.60;;;;;;4950785;28;20459;-86
2021/07/21 07:49:57;;;;;;;16.13;10.95;;;19.20;92.20;;;;;;4937419;28;20041;-87
2021/07/21 07:52:23;;;;;;;15.80;10.02;;;19.30;91.80;;;;;;4965025;28;20039;-86
2021/07/21 07:54:49;;;;;;;14.35;10.10;;;19.30;91.50;;;;;;4932117;28;20101;-86
2021/07/21 07:57:15;;;;;;;15.43;10.25;;;19.40;91.40;;;;;;4954074;28;20086;-84
2021/07/21 07:59:40;;;;;;;15.50;9.77;;;19.40;91.30;;;;;;4955301;28;20105;-84
2021/07/21 08:02:06;;;;;;;16.50;9.18;;;19.40;90.90;;;;;;4952326;28;20045;-84
2021/07/21 08:04:32;;;;;;;13.68;10.15;;;19.40;90.80;;;;;;4944473;28;20102;-84
2021/07/21 08:06:58;;;;;;;11.15;7.63;;;19.40;90.70;;;;;;4942718;28;20030;-84
2021/07/21 08:09:24;;;;;;;16.45;10.25;;;19.50;90.40;;;;;;4955542;28;20031;-84
2021/07/21 08:11:52;;;;;;;14.43;8.68;;;19.60;90.20;;;;;;4932838;28;20449;-85
2021/07/21 08:14:19;;;;;;;12.02;8.05;;;19.70;90.10;;;;;;4951776;28;20497;-84
2021/07/21 08:16:46;;;;;;;14.40;9.13;;;19.80;90.10;;;;;;4963408;28;20039;-85
2021/07/21 08:19:13;;;;;;;13.90;9.13;;;19.80;90.00;;;;;;4941165;28;20222;-84
2021/07/21 08:21:38;;;;;;;11.75;8.27;;;19.90;89.90;;;;;;4954878;28;20039;-84
2021/07/21 08:24:04;;;;;;;12.27;8.88;;;20.00;89.20;;;;;;4966654;28;20038;-85
2021/07/21 08:26:31;;;;;;;12.27;8.82;;;20.10;88.70;;;;;;4939603;28;20051;-84
2021/07/21 08:28:56;;;;;;;14.07;9.20;;;20.10;89.60;;;;;;4929377;28;21099;-85
2021/07/21 08:31:22;;;;;;;12.95;8.60;;;20.20;88.80;;;;;;4944934;28;20035;-84
2021/07/21 08:33:48;;;;;;;11.70;7.80;;;20.20;88.30;;;;;;4949616;28;20541;-85
2021/07/21 08:36:14;;;;;;;10.68;7.88;;;20.30;87.50;;;;;;4952261;28;20407;-84
2021/07/21 08:38:40;;;;;;;15.35;9.25;;;20.40;87.80;;;;;;4945659;28;20110;-83
2021/07/21 08:41:07;;;;;;;11.57;8.98;;;20.50;87.40;;;;;;4959796;28;20231;-84
2021/07/21 08:43:35;;;;;;;13.80;9.10;;;20.50;87.00;;;;;;4948404;28;20038;-84
2021/07/21 08:46:01;;;;;;;12.48;9.18;;;20.60;86.80;;;;;;4931727;28;20190;-84
2021/07/21 08:48:26;;;;;;;11.80;8.07;;;20.60;86.50;;;;;;4972344;28;20573;-86
2021/07/21 08:50:53;;;;;;;13.02;8.25;;;20.60;87.20;;;;;;4946598;28;20030;-85
2021/07/21 08:53:19;;;;;;;10.75;7.88;;;20.60;86.00;;;;;;4935140;28;20141;-84
2021/07/21 08:55:47;;;;;;;13.48;8.32;;;20.70;85.70;;;;;;4935257;28;20283;-85
2021/07/21 08:58:12;;;;;;;11.85;8.23;;;20.70;85.50;;;;;;4969337;28;20065;-83
2021/07/21 09:00:39;;;;;;;10.93;8.15;;;20.70;86.00;;;;;;4951058;28;20063;-83
2021/07/21 09:03:05;;;;;;;11.52;8.20;;;20.70;85.50;;;;;;4967866;28;22299;-85
2021/07/21 09:05:30;;;;;;;12.73;7.30;;;20.80;85.40;;;;;;4937971;28;20046;-84
2021/07/21 09:07:56;;;;;;;10.57;7.95;;;20.80;84.80;;;;;;4938592;28;20058;-84
2021/07/21 09:10:22;;;;;;;9.88;7.70;;;20.80;84.80;;;;;;4939821;28;20070;-85
2021/07/21 09:12:50;;;;;;;10.98;7.43;;;20.80;84.50;;;;;;4948271;28;20054;-84
2021/07/21 09:15:18;;;;;;;10.95;7.90;;;20.90;84.50;;;;;;4973611;28;20038;-84
2021/07/21 09:18:08;;;;;;;10.73;7.63;;;20.90;85.80;;;;;;4947155;28;20244;-83
2021/07/21 09:20:46;;;;;;;12.73;7.22;;;21.00;84.10;;;;;;4962435;28;20097;-85
2021/07/21 09:23:13;;;;;;;10.35;7.30;;;21.00;82.70;;;;;;4963498;28;20062;-84
2021/07/21 09:25:40;;;;;;;11.55;6.93;;;20.90;82.40;;;;;;4936490;28;20044;-84
2021/07/21 09:28:08;;;;;;;9.57;6.78;;;21.00;82.50;;;;;;4956922;28;20126;-85
2021/07/21 09:30:45;;;;;;;13.20;8.80;;;21.00;82.90;;;;;;4947974;28;20089;-84
2021/07/21 09:33:17;;;;;;;12.40;8.30;;;21.10;82.70;;;;;;4955680;28;20737;-83
2021/07/21 09:35:51;;;;;;;14.70;8.43;;;21.10;82.80;;;;;;4956717;28;20035;-84
2021/07/21 09:38:23;;;;;;;10.90;7.75;;;21.10;83.20;;;;;;4975934;28;20081;-84
2021/07/21 09:40:58;;;;;;;11.43;7.70;;;21.20;83.30;;;;;;4957069;28;20039;-85
2021/07/21 09:43:27;;;;;;;11.90;8.40;;;21.20;82.80;;;;;;4976174;28;20517;-85
2021/07/21 09:45:53;;;;;;;12.52;8.07;;;21.20;82.60;;;;;;4973823;28;20046;-85
2021/07/21 09:48:36;;;;;;;9.65;7.57;;;21.30;83.50;;;;;;4958873;28;20042;-84
2021/07/21 09:51:02;;;;;;;11.20;8.43;;;21.30;83.70;;;;;;4979056;28;20070;-85
2021/07/21 09:53:46;;;;;;;10.30;7.90;;;21.40;83.60;;;;;;4953639;28;20044;-83
2021/07/21 09:56:12;;;;;;;11.55;8.48;;;21.40;83.10;;;;;;4968332;28;20038;-86
2021/07/21 09:58:39;;;;;;;12.13;7.50;;;21.50;82.30;;;;;;4937454;28;20065;-85
2021/07/21 10:01:06;;;;;;;12.20;8.23;;;21.50;82.20;;;;;;4956925;28;20043;-86
2021/07/21 10:03:37;;;;;;;13.13;7.38;;;21.60;80.80;;;;;;4960961;28;20043;-85
2021/07/21 10:06:10;;;;;;;11.98;8.43;;;21.60;79.90;;;;;;4965314;28;20339;-84
2021/07/21 10:08:59;;;;;;;12.27;8.00;;;21.60;81.60;;;;;;4972086;28;20034;-84
2021/07/21 10:11:32;;;;;;;11.57;7.95;;;21.60;82.10;;;;;;4958395;28;20069;-86
2021/07/21 10:14:01;;;;;;;10.48;7.80;;;21.60;82.20;;;;;;4955647;28;20023;-85
2021/07/21 10:16:40;;;;;;;11.00;7.65;;;21.70;81.60;;;;;;4956240;28;20097;-85
2021/07/21 10:19:19;;;;;;;11.10;8.07;;;21.70;81.10;;;;;;4968284;28;20045;-84
2021/07/21 10:21:51;;;;;;;10.32;7.40;;;21.80;80.70;;;;;;4970228;28;20425;-86
2021/07/21 10:24:18;;;;;;;9.75;7.75;;;21.90;82.30;;;;;;4972328;28;20105;-86
2021/07/21 10:26:45;;;;;;;9.27;7.50;;;21.90;81.90;;;;;;4963822;28;20062;-85
2021/07/21 10:29:12;;;;;;;11.35;7.88;;;21.90;81.10;;;;;;4952115;28;20052;-86
2021/07/21 10:31:38;;;;;;;11.07;7.38;;;21.80;80.10;;;;;;4952836;28;20065;-86
2021/07/21 10:34:05;;;;;;;11.82;7.95;;;21.80;79.70;;;;;;4952954;28;20035;-85
2021/07/21 10:36:32;;;;;;;10.10;7.80;;;21.80;81.40;;;;;;4938186;28;20042;-86
2021/07/21 10:39:00;;;;;;;13.80;8.02;;;21.80;81.40;;;;;;4962267;28;20395;-85
2021/07/21 10:41:30;;;;;;;10.10;7.43;;;21.80;81.30;;;;;;4951869;28;20071;-85
2021/07/21 10:43:58;;;;;;;10.07;7.65;;;21.80;80.00;;;;;;4970802;28;20035;-85
2021/07/21 10:46:40;;;;;;;8.85;7.38;;;21.80;79.40;;;;;;4976595;28;20034;-85
2021/07/21 10:49:39;;;;;;;10.48;7.38;;;21.80;79.50;;;;;;4955402;28;20323;-85
2021/07/21 11:00:20;;;;;;;11.07;7.93;;;22.10;79.10;;;;;;4969394;28;20067;-86
2021/07/21 11:02:52;;;;;;;10.15;7.75;;;22.20;78.20;;;;;;4950039;28;20068;-85
2021/07/21 11:05:42;;;;;;;13.53;7.40;;;22.20;78.20;;;;;;4938324;28;20043;-86
2021/07/21 11:08:19;;;;;;;11.10;8.13;;;22.20;79.80;;;;;;4950842;28;20047;-86
2021/07/21 11:10:49;;;;;;;9.55;7.65;;;22.20;78.90;;;;;;4951847;28;20061;-86
2021/07/21 11:13:36;;;;;;;10.50;7.07;;;22.20;79.20;;;;;;4952026;28;20035;-86
2021/07/21 11:16:04;;;;;;;10.05;7.30;;;22.20;78.10;;;;;;4967851;28;20027;-86
2021/07/21 11:18:43;;;;;;;10.98;7.57;;;22.10;77.30;;;;;;4973725;28;20054;-85
2021/07/21 11:21:16;;;;;;;10.15;7.82;;;22.10;76.60;;;;;;4943484;28;20339;-86
2021/07/21 11:23:51;;;;;;;12.25;7.53;;;22.00;76.70;;;;;;4966808;28;20042;-86
2021/07/21 11:26:35;;;;;;;11.95;7.90;;;22.10;78.50;;;;;;4968704;28;20039;-85
2021/07/21 11:29:23;;;;;;;12.93;7.10;;;22.20;78.50;;;;;;4969080;28;20041;-85
2021/07/21 11:31:49;;;;;;;10.63;7.15;;;22.20;76.70;;;;;;4978954;28;20046;-84
2021/07/21 11:34:37;;;;;;;11.90;7.68;;;22.30;75.60;;;;;;4965902;28;20412;-87
2021/07/21 11:37:24;;;;;;;10.82;7.28;;;22.30;75.90;;;;;;4955446;28;20042;-86
2021/07/21 11:40:14;;;;;;;13.48;8.02;;;22.30;77.50;;;;;;4893954;29;20104;-86
2021/07/21 11:42:40;;;;;;;10.27;7.93;;;22.50;77.40;;;;;;4896706;29;20068;-86
2021/07/21 11:45:07;;;;;;;10.70;7.47;;;22.50;76.90;;;;;;4936808;28;20077;-86
2021/07/21 11:47:36;;;;;;;11.65;8.00;;;22.40;77.10;;;;;;4970326;28;20394;-85
2021/07/21 11:50:17;;;;;;;10.48;8.02;;;22.40;76.60;;;;;;4967181;28;20494;-85
2021/07/21 11:52:53;;;;;;;10.20;7.25;;;22.40;76.80;;;;;;4957384;28;20219;-86
2021/07/21 11:55:22;;;;;;;11.05;7.82;;;22.40;77.70;;;;;;4952062;28;20043;-86
2021/07/21 11:57:49;;;;;;;12.27;8.25;;;22.30;78.20;;;;;;4967994;28;20035;-86
2021/07/21 12:00:18;;;;;;;10.25;7.60;;;22.30;77.40;;;;;;4958795;28;20046;-86
2021/07/21 12:02:44;;;;;;;13.25;8.00;;;22.30;76.00;;;;;;4968408;28;20050;-86
2021/07/21 12:05:10;;;;;;;11.52;7.63;;;22.20;76.10;;;;;;4963161;28;20506;-86
2021/07/21 12:07:38;;;;;;;11.05;7.88;;;22.20;77.60;;;;;;4943213;28;20054;-86
2021/07/21 12:10:15;;;;;;;10.93;8.35;;;22.20;78.20;;;;;;4970017;28;20118;-86
2021/07/21 12:12:43;;;;;;;10.65;8.20;;;22.20;78.90;;;;;;4952527;28;20035;-86
2021/07/21 12:15:10;;;;;;;15.02;8.18;;;22.20;79.90;;;;;;4974063;28;20042;-85
2021/07/21 12:17:36;;;;;;;10.70;7.60;;;22.20;79.70;;;;;;4959342;28;20114;-86
2021/07/21 12:20:09;;;;;;;11.45;7.85;;;22.20;79.10;;;;;;4961983;28;20087;-86
2021/07/21 12:22:38;;;;;;;10.77;7.30;;;22.20;77.50;;;;;;4971942;28;20042;-85
2021/07/21 12:25:14;;;;;;;10.85;7.60;;;22.10;76.10;;;;;;4962587;28;20047;-84
2021/07/21 12:27:46;;;;;;;12.30;8.32;;;22.10;75.50;;;;;;4953275;28;20042;-85
2021/07/21 12:30:17;;;;;;;9.50;7.18;;;22.10;75.60;;;;;;4966750;28;20517;-86
2021/07/21 12:32:45;;;;;;;11.45;7.20;;;22.10;75.10;;;;;;4967210;28;20086;-86
2021/07/21 12:35:13;;;;;;;10.27;7.40;;;22.10;75.90;;;;;;4961208;28;20027;-85
2021/07/21 12:37:44;;;;;;;12.55;7.80;;;22.10;75.70;;;;;;4969070;28;20046;-85
2021/07/21 12:40:13;;;;;;;10.50;7.57;;;22.20;76.60;;;;;;4963388;28;20086;-86
2021/07/21 12:42:40;;;;;;;10.23;7.70;;;22.20;77.10;;;;;;4958331;28;20301;-84
2021/07/21 12:45:09;;;;;;;11.43;7.43;;;22.30;76.40;;;;;;4950553;28;20043;-86
2021/07/21 12:47:37;;;;;;;11.85;7.85;;;22.30;75.50;;;;;;4967938;28;20477;-84
2021/07/21 12:50:11;;;;;;;12.05;8.15;;;22.30;75.00;;;;;;4953399;28;20038;-84
2021/07/21 12:52:49;;;;;;;10.15;7.50;;;22.30;74.90;;;;;;4969783;28;20092;-86
2021/07/21 12:55:18;;;;;;;10.90;7.60;;;22.30;74.90;;;;;;4954975;28;20397;-86